createdAt,value
2023-05-02T00:02:21.721Z,8.70
2023-05-02T00:04:48.855Z,9.00
2023-05-02T00:09:43.616Z,9.00
2023-05-02T00:19:38.410Z,8.20
2023-05-02T00:29:28.176Z,8.60
2023-05-02T00:49:08.563Z,8.20
2023-05-02T00:54:04.106Z,8.50
2023-05-02T00:56:31.157Z,8.40
2023-05-02T00:58:59.430Z,8.80
2023-05-02T01:02:16.498Z,8.40
2023-05-02T01:05:21.165Z,8.30
2023-05-02T01:08:15.135Z,8.40
2023-05-02T01:10:50.193Z,8.70
2023-05-02T01:13:20.655Z,8.20
2023-05-02T01:15:52.052Z,8.50
2023-05-02T01:18:24.963Z,8.30
2023-05-02T01:21:11.590Z,8.40
2023-05-02T01:26:29.637Z,8.10
2023-05-02T01:29:01.468Z,8.10
2023-05-02T01:31:46.448Z,7.90
2023-05-02T01:34:13.821Z,8.40
2023-05-02T01:36:47.082Z,8.00
2023-05-02T01:39:20.478Z,8.00
2023-05-02T01:41:52.192Z,7.60
2023-05-02T01:44:22.907Z,8.00
2023-05-02T01:46:53.086Z,7.90
2023-05-02T01:49:23.542Z,7.80
2023-05-02T01:51:52.481Z,7.50
2023-05-02T01:54:23.953Z,7.90
2023-05-02T01:56:52.218Z,7.90
2023-05-02T01:59:24.004Z,7.90
2023-05-02T02:01:53.770Z,7.50
2023-05-02T02:04:23.799Z,7.80
2023-05-02T02:07:01.008Z,7.90
2023-05-02T02:12:32.270Z,7.80
2023-05-02T02:15:28.072Z,7.80
2023-05-02T02:18:11.075Z,7.60
2023-05-02T02:20:43.100Z,7.90
2023-05-02T02:23:13.540Z,8.30
2023-05-02T02:30:36.898Z,7.60
2023-05-02T02:33:04.575Z,7.90
2023-05-02T02:35:53.858Z,7.30
2023-05-02T02:38:48.392Z,7.30
2023-05-02T02:41:27.478Z,7.70
2023-05-02T02:44:35.130Z,7.60
2023-05-02T02:47:37.824Z,7.60
2023-05-02T02:50:23.239Z,7.50
2023-05-02T02:53:10.076Z,7.60
2023-05-02T02:55:57.997Z,7.40
2023-05-02T02:58:53.336Z,7.60
2023-05-02T03:01:24.526Z,7.50
2023-05-02T03:03:54.866Z,7.60
2023-05-02T03:08:51.963Z,7.90
2023-05-02T03:11:22.159Z,8.10
2023-05-02T03:16:32.664Z,7.40
2023-05-02T03:24:04.805Z,7.70
2023-05-02T03:31:33.815Z,7.80
2023-05-02T03:34:01.759Z,8.20
2023-05-02T03:36:29.203Z,7.90
2023-05-02T03:38:56.365Z,7.70
2023-05-02T03:48:58.592Z,7.60
2023-05-02T04:03:59.493Z,7.40
2023-05-02T04:06:30.421Z,7.50
2023-05-02T04:11:35.845Z,7.40
2023-05-02T04:23:56.311Z,7.10
2023-05-02T04:26:23.761Z,7.00
2023-05-02T04:33:53.126Z,6.80
2023-05-02T04:36:26.211Z,7.20
2023-05-02T04:38:53.703Z,7.40
2023-05-02T04:41:21.623Z,7.00
2023-05-02T04:43:54.894Z,7.20
2023-05-02T04:48:49.578Z,7.00
2023-05-02T04:51:17.198Z,7.10
2023-05-02T04:53:47.980Z,7.20
2023-05-02T04:56:15.292Z,7.20
2023-05-02T04:58:42.893Z,7.70
2023-05-02T05:01:11.202Z,6.90
2023-05-02T05:03:38.460Z,7.60
2023-05-02T05:06:07.425Z,7.60
2023-05-02T05:20:59.769Z,7.40
2023-05-02T05:23:27.083Z,7.80
2023-05-02T05:25:54.842Z,7.30
2023-05-02T05:28:21.952Z,7.70
2023-05-02T05:45:43.902Z,7.90
2023-05-02T05:48:11.069Z,7.50
2023-05-02T06:00:39.784Z,7.80
2023-05-02T06:05:37.893Z,8.20
2023-05-02T06:10:32.921Z,7.70
2023-05-02T06:15:35.295Z,8.00
2023-05-02T06:25:27.181Z,8.50
2023-05-02T06:45:08.612Z,8.50
2023-05-02T07:19:37.371Z,8.70
2023-05-02T07:41:44.816Z,9.10
2023-05-02T07:56:30.941Z,10.10
2023-05-02T08:06:21.026Z,10.20
2023-05-02T08:33:24.140Z,11.60
2023-05-02T08:40:46.610Z,12.20
2023-05-02T08:43:16.414Z,11.80
2023-05-02T08:45:45.557Z,12.20
2023-05-02T08:48:15.085Z,12.20
2023-05-02T08:50:45.625Z,12.20
2023-05-02T08:53:14.727Z,12.30
2023-05-02T08:55:42.965Z,12.30
2023-05-02T09:00:42.876Z,12.40
2023-05-02T09:05:42.691Z,12.50
2023-05-02T09:13:36.924Z,12.60
2023-05-02T09:16:07.989Z,12.60
2023-05-02T09:18:56.721Z,12.60
2023-05-02T09:21:40.110Z,12.70
2023-05-02T09:24:22.463Z,13.00
2023-05-02T09:27:03.038Z,13.10
2023-05-02T09:29:38.032Z,12.80
2023-05-02T09:32:06.888Z,12.70
2023-05-02T09:34:34.891Z,12.90
2023-05-02T09:37:04.109Z,12.90
2023-05-02T09:39:31.577Z,13.00
2023-05-02T09:41:59.972Z,13.00
2023-05-02T09:44:37.642Z,13.10
2023-05-02T09:47:06.764Z,13.20
2023-05-02T09:49:46.801Z,13.20
2023-05-02T09:52:17.290Z,13.30
2023-05-02T09:54:46.877Z,13.30
2023-05-02T09:57:14.346Z,13.40
2023-05-02T09:59:41.766Z,13.40
2023-05-02T10:02:12.029Z,13.30
2023-05-02T10:04:40.630Z,13.60
2023-05-02T10:07:10.593Z,13.40
2023-05-02T10:09:45.531Z,13.50
2023-05-02T10:12:16.874Z,13.50
2023-05-02T10:14:54.038Z,13.60
2023-05-02T10:17:31.084Z,13.70
2023-05-02T10:20:04.882Z,13.70
2023-05-02T10:22:35.342Z,13.80
2023-05-02T10:25:04.342Z,13.70
2023-05-02T10:27:33.376Z,13.70
2023-05-02T10:30:04.281Z,13.80
2023-05-02T10:32:34.865Z,13.90
2023-05-02T10:35:07.902Z,13.90
2023-05-02T10:37:38.453Z,13.90
2023-05-02T10:40:10.328Z,14.00
2023-05-02T10:42:47.968Z,14.00
2023-05-02T10:45:35.882Z,14.10
2023-05-02T10:48:25.418Z,14.20
2023-05-02T10:50:57.605Z,14.40
2023-05-02T10:53:36.934Z,14.60
2023-05-02T10:56:16.682Z,14.60
2023-05-02T10:58:46.471Z,14.80
2023-05-02T11:01:28.685Z,14.90
2023-05-02T11:04:04.930Z,15.00
2023-05-02T11:06:55.716Z,15.30
2023-05-02T11:09:22.744Z,15.50
2023-05-02T11:11:52.606Z,15.70
2023-05-02T11:14:25.970Z,15.80
2023-05-02T11:17:01.805Z,15.90
2023-05-02T11:19:31.737Z,16.00
2023-05-02T11:22:20.741Z,16.00
2023-05-02T11:24:49.561Z,15.90
2023-05-02T11:27:38.251Z,15.90
2023-05-02T11:30:09.795Z,15.80
2023-05-02T11:32:46.811Z,15.80
2023-05-02T11:35:27.425Z,15.70
2023-05-02T11:37:58.936Z,15.70
2023-05-02T11:40:27.629Z,15.70
2023-05-02T11:42:56.494Z,15.80
2023-05-02T11:45:34.158Z,15.80
2023-05-02T11:48:01.353Z,16.00
2023-05-02T11:50:30.383Z,16.10
2023-05-02T11:52:57.496Z,16.20
2023-05-02T11:55:24.918Z,16.30
2023-05-02T11:57:52.154Z,16.30
2023-05-02T12:00:19.731Z,16.30
2023-05-02T12:02:48.969Z,16.30
2023-05-02T12:05:28.563Z,16.30
2023-05-02T12:07:55.720Z,16.30
2023-05-02T12:10:22.961Z,16.40
2023-05-02T12:12:51.007Z,16.50
2023-05-02T12:15:18.810Z,16.50
2023-05-02T12:17:49.434Z,16.60
2023-05-02T12:20:18.084Z,16.60
2023-05-02T12:22:45.657Z,16.60
2023-05-02T12:25:12.901Z,16.50
2023-05-02T12:27:40.020Z,16.50
2023-05-02T12:30:08.770Z,16.30
2023-05-02T12:32:37.202Z,16.20
2023-05-02T12:35:05.141Z,16.10
2023-05-02T12:37:32.234Z,16.00
2023-05-02T12:39:59.826Z,15.90
2023-05-02T12:42:28.409Z,15.90
2023-05-02T12:44:57.006Z,15.80
2023-05-02T12:47:24.994Z,15.80
2023-05-02T12:49:57.492Z,15.90
2023-05-02T12:52:54.954Z,16.00
2023-05-02T12:55:32.066Z,16.10
2023-05-02T12:58:13.380Z,16.10
2023-05-02T13:00:44.804Z,16.20
2023-05-02T13:03:13.434Z,16.20
2023-05-02T13:05:40.849Z,16.30
2023-05-02T13:08:08.007Z,16.30
2023-05-02T13:10:35.391Z,16.30
2023-05-02T13:13:02.846Z,16.30
2023-05-02T13:15:30.181Z,16.30
2023-05-02T13:17:57.390Z,16.20
2023-05-02T13:20:24.610Z,16.20
2023-05-02T13:22:51.701Z,15.00
2023-05-02T13:25:18.811Z,16.10
2023-05-02T13:27:46.242Z,16.20
2023-05-02T13:30:14.466Z,16.20
2023-05-02T13:32:41.725Z,16.20
2023-05-02T13:35:13.805Z,16.30
2023-05-02T13:37:41.693Z,16.30
2023-05-02T13:40:09.361Z,16.40
2023-05-02T13:42:36.672Z,16.40
2023-05-02T13:45:06.511Z,16.50
2023-05-02T13:47:33.726Z,16.60
2023-05-02T13:50:00.955Z,16.70
2023-05-02T13:52:28.165Z,16.70
2023-05-02T13:54:55.296Z,16.80
2023-05-02T13:57:22.472Z,16.80
2023-05-02T13:59:49.593Z,16.80
2023-05-02T14:02:17.494Z,16.80
2023-05-02T14:04:44.646Z,16.80
2023-05-02T14:07:11.745Z,16.80
2023-05-02T14:09:39.113Z,16.70
2023-05-02T14:12:06.525Z,16.50
2023-05-02T14:14:33.677Z,16.40
2023-05-02T14:17:02.738Z,16.30
2023-05-02T14:19:29.893Z,16.20
2023-05-02T14:21:56.983Z,16.20
2023-05-02T14:24:24.160Z,16.10
2023-05-02T14:26:51.319Z,16.20
2023-05-02T14:29:19.892Z,16.20
2023-05-02T14:31:47.301Z,16.30
2023-05-02T14:34:14.483Z,16.30
2023-05-02T14:36:41.622Z,16.30
2023-05-02T14:39:08.689Z,16.30
2023-05-02T14:41:36.438Z,16.30
2023-05-02T14:44:03.897Z,16.40
2023-05-02T14:46:31.032Z,16.40
2023-05-02T14:48:58.204Z,16.40
2023-05-02T14:51:25.327Z,16.30
2023-05-02T14:53:52.593Z,16.40
2023-05-02T14:56:20.342Z,16.50
2023-05-02T14:58:47.591Z,16.50
2023-05-02T15:01:22.666Z,16.60
2023-05-02T15:04:05.192Z,16.60
2023-05-02T15:06:35.560Z,16.50
2023-05-02T15:09:03.270Z,16.60
2023-05-02T15:11:30.787Z,16.60
2023-05-02T15:13:59.470Z,16.60
2023-05-02T15:16:27.356Z,16.60
2023-05-02T15:18:55.040Z,16.60
2023-05-02T15:21:23.082Z,16.60
2023-05-02T15:23:50.262Z,16.70
2023-05-02T15:26:17.704Z,16.70
2023-05-02T15:28:44.807Z,16.70
2023-05-02T15:31:11.996Z,16.80
2023-05-02T15:33:39.122Z,16.70
2023-05-02T15:36:06.705Z,16.70
2023-05-02T15:38:42.306Z,16.70
2023-05-02T15:41:13.902Z,16.70
2023-05-02T15:43:41.065Z,16.70
2023-05-02T15:46:08.253Z,16.70
2023-05-02T15:48:35.479Z,16.70
2023-05-02T15:51:03.159Z,16.60
2023-05-02T15:53:30.554Z,16.60
2023-05-02T15:55:57.670Z,16.60
2023-05-02T15:58:24.748Z,16.50
2023-05-02T16:00:52.645Z,16.30
2023-05-02T16:03:19.990Z,16.20
2023-05-02T16:05:47.257Z,16.00
2023-05-02T16:08:14.414Z,15.90
2023-05-02T16:10:43.489Z,15.70
2023-05-02T16:13:11.058Z,15.50
2023-05-02T16:15:39.485Z,15.30
2023-05-02T16:18:06.737Z,15.00
2023-05-02T16:20:36.965Z,14.90
2023-05-02T16:23:04.634Z,14.70
2023-05-02T16:25:32.724Z,14.70
2023-05-02T16:28:01.178Z,14.60
2023-05-02T16:30:28.565Z,14.40
2023-05-02T16:32:55.800Z,14.40
2023-05-02T16:35:22.976Z,14.40
2023-05-02T16:37:50.106Z,14.40
2023-05-02T16:40:17.408Z,14.40
2023-05-02T16:42:44.507Z,14.40
2023-05-02T16:45:11.711Z,14.40
2023-05-02T16:47:38.837Z,14.40
2023-05-02T16:50:06.957Z,14.30
2023-05-02T16:52:36.610Z,14.20
2023-05-02T16:55:04.742Z,14.20
2023-05-02T16:57:31.863Z,14.10
2023-05-02T16:59:59.246Z,14.00
2023-05-02T17:02:26.740Z,13.90
2023-05-02T17:04:54.096Z,13.80
2023-05-02T17:07:21.171Z,13.70
2023-05-02T17:09:48.275Z,13.60
2023-05-02T17:12:18.732Z,13.60
2023-05-02T17:14:46.170Z,13.50
2023-05-02T17:17:13.239Z,13.50
2023-05-02T17:19:42.878Z,13.40
2023-05-02T17:22:10.243Z,13.30
2023-05-02T17:24:37.380Z,13.30
2023-05-02T17:27:04.566Z,13.20
2023-05-02T17:29:32.621Z,13.10
2023-05-02T17:32:02.806Z,13.00
2023-05-02T17:34:30.525Z,12.90
2023-05-02T17:36:57.658Z,12.90
2023-05-02T17:39:24.781Z,12.90
2023-05-02T17:41:51.929Z,12.90
2023-05-02T17:44:19.042Z,12.90
2023-05-02T17:46:46.732Z,12.80
2023-05-02T17:49:13.993Z,12.70
2023-05-02T17:51:41.082Z,12.70
2023-05-02T17:54:08.237Z,12.70
2023-05-02T17:56:36.862Z,12.70
2023-05-02T17:59:06.966Z,12.60
2023-05-02T18:01:34.198Z,12.60
2023-05-02T18:04:04.097Z,12.60
2023-05-02T18:06:34.504Z,12.50
2023-05-02T18:09:01.789Z,12.40
2023-05-02T18:11:38.608Z,12.30
2023-05-02T18:14:06.345Z,12.30
2023-05-02T18:16:36.309Z,12.10
2023-05-02T18:19:03.690Z,12.00
2023-05-02T18:21:34.806Z,12.00
2023-05-02T18:24:01.944Z,11.80
2023-05-02T18:26:29.065Z,11.70
2023-05-02T18:28:56.227Z,11.70
2023-05-02T18:31:23.945Z,11.60
2023-05-02T18:33:54.318Z,11.60
2023-05-02T18:36:29.431Z,11.40
2023-05-02T18:51:16.231Z,11.30
2023-05-02T18:56:14.894Z,11.20
2023-05-02T19:01:16.221Z,10.90
2023-05-02T19:03:44.377Z,10.80
2023-05-02T19:33:18.607Z,10.80
2023-05-02T19:43:10.029Z,10.90
2023-05-02T19:48:05.257Z,10.70
2023-05-02T20:00:24.350Z,10.50
2023-05-02T20:15:16.874Z,10.70
2023-05-02T20:20:12.318Z,10.60
2023-05-02T20:22:40.622Z,10.50
2023-05-02T20:25:11.515Z,10.50
2023-05-02T20:27:39.291Z,10.50
2023-05-02T20:30:09.948Z,10.40
2023-05-02T20:32:37.384Z,10.60
2023-05-02T20:37:32.326Z,10.10
2023-05-02T20:39:59.949Z,9.80
2023-05-02T20:45:00.397Z,10.20
2023-05-02T20:47:30.446Z,10.10
2023-05-02T20:54:57.085Z,10.60
2023-05-02T21:14:36.582Z,9.30
2023-05-02T21:17:03.693Z,9.80
2023-05-02T21:22:00.704Z,9.50
2023-05-02T21:24:27.750Z,10.10
2023-05-02T21:29:22.267Z,9.70
2023-05-02T21:36:46.003Z,9.60
2023-05-02T21:39:13.179Z,9.60
2023-05-02T21:44:11.600Z,9.60
2023-05-02T21:51:34.878Z,9.90
2023-05-02T22:28:30.770Z,9.80
2023-05-02T22:33:25.421Z,8.30
2023-05-02T22:53:09.502Z,8.10
2023-05-02T22:55:38.684Z,8.40
2023-05-02T23:15:20.098Z,8.40
2023-05-02T23:25:15.331Z,7.90
2023-05-02T23:30:10.555Z,7.40
2023-05-02T23:42:30.349Z,7.70
2023-05-02T23:59:47.206Z,7.40
